createdAt,value
2018-10-19T00:02:19.704Z,94.42
2018-10-19T00:04:48.540Z,94.51
2018-10-19T00:07:18.562Z,94.28
2018-10-19T00:09:47.876Z,94.99
2018-10-19T00:12:18.547Z,95.79
2018-10-19T00:14:48.028Z,95.24
2018-10-19T00:17:17.019Z,95.22
2018-10-19T00:19:45.545Z,95.51
2018-10-19T00:22:14.784Z,95.50
2018-10-19T00:24:44.160Z,95.25
2018-10-19T00:27:13.105Z,95.48
2018-10-19T00:29:42.483Z,95.82
2018-10-19T00:32:13.020Z,95.46
2018-10-19T00:34:41.922Z,95.11
2018-10-19T00:37:10.849Z,95.60
2018-10-19T00:39:39.545Z,95.33
2018-10-19T00:42:08.503Z,95.68
2018-10-19T00:44:37.325Z,95.51
2018-10-19T00:47:06.312Z,95.99
2018-10-19T00:49:35.214Z,95.74
2018-10-19T00:52:04.237Z,95.68
2018-10-19T00:54:33.685Z,96.30
2018-10-19T00:57:03.537Z,95.77
2018-10-19T00:59:32.246Z,95.95
2018-10-19T01:02:01.030Z,96.02
2018-10-19T01:04:30.677Z,96.45
2018-10-19T01:06:59.733Z,96.24
2018-10-19T01:09:29.016Z,95.70
2018-10-19T01:11:58.060Z,95.53
2018-10-19T01:14:26.799Z,95.88
2018-10-19T01:16:55.858Z,95.78
2018-10-19T01:19:25.247Z,95.75
2018-10-19T01:21:55.401Z,96.11
2018-10-19T01:24:24.345Z,96.03
2018-10-19T01:26:53.076Z,95.98
2018-10-19T01:29:21.855Z,96.03
2018-10-19T01:31:51.099Z,95.57
2018-10-19T01:34:19.700Z,95.41
2018-10-19T01:36:48.523Z,95.69
2018-10-19T01:39:17.326Z,95.26
2018-10-19T01:41:46.060Z,95.36
2018-10-19T01:44:16.511Z,95.52
2018-10-19T01:46:49.950Z,95.30
2018-10-19T01:49:19.804Z,95.28
2018-10-19T01:51:48.893Z,95.66
2018-10-19T01:54:17.591Z,95.10
2018-10-19T01:56:46.961Z,95.35
2018-10-19T01:59:15.770Z,95.04
2018-10-19T02:01:45.223Z,94.60
2018-10-19T02:04:14.139Z,94.68
2018-10-19T02:06:43.087Z,94.74
2018-10-19T02:09:13.565Z,95.12
2018-10-19T02:11:42.186Z,95.49
2018-10-19T02:14:11.990Z,95.38
2018-10-19T02:16:41.031Z,95.49
2018-10-19T02:19:10.310Z,95.03
2018-10-19T02:21:39.016Z,95.00
2018-10-19T02:24:07.830Z,95.26
2018-10-19T02:26:36.539Z,95.21
2018-10-19T02:29:06.243Z,94.84
2018-10-19T02:31:35.530Z,95.00
2018-10-19T02:34:04.198Z,95.38
2018-10-19T02:36:33.950Z,95.73
2018-10-19T02:39:03.423Z,95.70
2018-10-19T02:41:32.894Z,95.23
2018-10-19T02:44:01.582Z,95.52
2018-10-19T02:46:30.433Z,95.72
2018-10-19T02:48:59.194Z,96.08
2018-10-19T02:51:28.301Z,96.28
2018-10-19T02:53:57.180Z,96.09
2018-10-19T02:56:26.716Z,96.50
2018-10-19T02:58:55.789Z,96.40
2018-10-19T03:01:25.032Z,96.98
2018-10-19T03:03:54.197Z,97.00
2018-10-19T03:06:23.084Z,97.72
2018-10-19T03:08:52.732Z,97.17
2018-10-19T03:11:21.545Z,97.01
2018-10-19T03:13:50.216Z,97.20
2018-10-19T03:16:19.512Z,97.22
2018-10-19T03:18:48.221Z,97.33
2018-10-19T03:21:18.047Z,96.86
2018-10-19T03:23:47.086Z,97.11
2018-10-19T03:26:16.181Z,97.24
2018-10-19T03:28:45.546Z,97.59
2018-10-19T03:31:14.766Z,97.11
2018-10-19T03:33:43.550Z,97.36
2018-10-19T03:36:13.126Z,96.92
2018-10-19T03:38:42.306Z,96.98
2018-10-19T03:41:11.027Z,96.89
2018-10-19T03:43:40.013Z,96.56
2018-10-19T03:46:08.664Z,96.67
2018-10-19T03:48:37.406Z,96.86
2018-10-19T03:51:07.489Z,96.95
2018-10-19T03:53:36.794Z,97.21
2018-10-19T03:56:05.862Z,96.95
2018-10-19T03:58:34.842Z,97.22
2018-10-19T04:01:04.606Z,97.69
2018-10-19T04:03:33.503Z,97.00
2018-10-19T04:06:02.766Z,97.05
2018-10-19T04:08:32.350Z,97.32
2018-10-19T04:11:01.381Z,97.09
2018-10-19T04:13:30.158Z,96.94
2018-10-19T04:15:59.824Z,97.40
2018-10-19T04:18:28.960Z,97.70
2018-10-19T04:20:57.803Z,97.11
2018-10-19T04:23:27.346Z,97.35
2018-10-19T04:25:56.611Z,97.78
2018-10-19T04:28:25.433Z,98.18
2018-10-19T04:30:55.117Z,97.62
2018-10-19T04:33:23.893Z,97.53
2018-10-19T04:35:53.433Z,97.00
2018-10-19T04:38:23.135Z,96.98
2018-10-19T04:40:53.043Z,96.95
2018-10-19T04:43:21.675Z,97.04
2018-10-19T04:45:50.502Z,97.25
2018-10-19T04:48:19.397Z,97.54
2018-10-19T04:50:48.049Z,97.57
2018-10-19T04:53:17.162Z,97.65
2018-10-19T04:55:46.312Z,97.33
2018-10-19T04:58:15.736Z,97.29
2018-10-19T05:00:44.728Z,97.56
2018-10-19T05:03:14.230Z,98.12
2018-10-19T05:05:42.878Z,98.38
2018-10-19T05:08:13.453Z,98.14
2018-10-19T05:10:42.461Z,98.67
2018-10-19T05:13:11.856Z,98.68
2018-10-19T05:15:41.388Z,98.57
2018-10-19T05:18:10.327Z,98.54
2018-10-19T05:20:39.540Z,98.22
2018-10-19T05:23:09.075Z,97.94
2018-10-19T05:25:38.154Z,98.28
2018-10-19T05:28:07.301Z,98.13
2018-10-19T05:30:36.066Z,98.03
2018-10-19T05:33:04.997Z,98.11
2018-10-19T05:35:33.836Z,97.77
2018-10-19T05:38:03.065Z,97.85
2018-10-19T05:40:31.932Z,98.15
2018-10-19T05:43:00.598Z,98.86
2018-10-19T05:45:29.772Z,98.73
2018-10-19T05:47:59.082Z,98.56
2018-10-19T05:50:27.976Z,98.00
2018-10-19T05:52:57.425Z,98.07
2018-10-19T05:55:26.698Z,97.58
2018-10-19T05:57:55.814Z,97.95
2018-10-19T06:00:26.001Z,97.89
2018-10-19T06:02:55.336Z,97.56
2018-10-19T06:05:24.575Z,97.99
2018-10-19T06:07:53.439Z,97.91
2018-10-19T06:10:22.124Z,97.89
2018-10-19T06:12:51.676Z,97.69
2018-10-19T06:15:20.438Z,98.18
2018-10-19T06:17:49.643Z,98.00
2018-10-19T06:20:18.677Z,97.32
2018-10-19T06:22:48.108Z,97.47
2018-10-19T06:25:16.772Z,97.45
2018-10-19T06:27:45.493Z,96.82
2018-10-19T06:30:14.787Z,97.09
2018-10-19T06:32:44.170Z,96.93
2018-10-19T06:35:13.259Z,96.51
2018-10-19T06:37:42.433Z,96.75
2018-10-19T06:40:11.349Z,96.48
2018-10-19T06:42:41.081Z,96.24
2018-10-19T06:45:11.733Z,96.17
2018-10-19T06:47:41.529Z,95.64
2018-10-19T06:50:12.849Z,95.38
2018-10-19T06:52:42.797Z,95.54
2018-10-19T06:55:14.968Z,95.21
2018-10-19T06:57:43.967Z,94.47
2018-10-19T07:00:13.777Z,94.32
2018-10-19T07:02:42.667Z,93.44
2018-10-19T07:05:11.632Z,93.23
2018-10-19T07:07:40.936Z,92.54
2018-10-19T07:10:10.736Z,91.39
2018-10-19T07:12:40.990Z,90.83
2018-10-19T07:15:11.523Z,89.42
2018-10-19T07:17:40.383Z,88.79
2018-10-19T07:20:10.451Z,88.71
2018-10-19T07:22:39.412Z,87.84
2018-10-19T07:25:08.605Z,87.10
2018-10-19T07:27:38.551Z,86.98
2018-10-19T07:30:07.502Z,86.58
2018-10-19T07:32:37.187Z,85.84
2018-10-19T07:35:08.465Z,86.25
2018-10-19T07:37:38.309Z,86.77
2018-10-19T07:40:07.642Z,86.71
2018-10-19T07:42:37.173Z,85.97
2018-10-19T07:45:06.677Z,85.33
2018-10-19T07:47:35.507Z,84.59
2018-10-19T07:50:04.919Z,83.85
2018-10-19T07:52:33.813Z,83.27
2018-10-19T07:55:03.052Z,81.89
2018-10-19T07:57:32.481Z,80.81
2018-10-19T08:00:01.485Z,79.47
2018-10-19T08:02:31.308Z,77.94
2018-10-19T08:05:00.079Z,75.88
2018-10-19T08:07:29.202Z,73.49
2018-10-19T08:09:58.566Z,71.51
2018-10-19T08:12:27.577Z,69.92
2018-10-19T08:14:57.022Z,68.04
2018-10-19T08:17:26.972Z,66.87
2018-10-19T08:19:55.877Z,64.37
2018-10-19T08:22:24.692Z,61.34
2018-10-19T08:24:54.512Z,60.17
2018-10-19T08:27:23.926Z,59.12
2018-10-19T08:29:54.546Z,58.16
2018-10-19T08:32:23.369Z,57.11
2018-10-19T08:34:52.497Z,54.21
2018-10-19T08:37:21.206Z,53.83
2018-10-19T08:39:50.119Z,53.95
2018-10-19T08:42:19.213Z,51.00
2018-10-19T08:44:48.292Z,49.74
2018-10-19T08:47:17.812Z,49.06
2018-10-19T08:49:47.704Z,48.27
2018-10-19T08:52:16.797Z,48.12
2018-10-19T08:54:45.622Z,47.71
2018-10-19T08:57:14.609Z,47.72
2018-10-19T08:59:43.844Z,46.11
2018-10-19T09:02:12.937Z,43.76
2018-10-19T09:04:42.773Z,41.72
2018-10-19T09:07:12.156Z,42.21
2018-10-19T09:09:40.837Z,41.93
2018-10-19T09:12:10.199Z,41.92
2018-10-19T09:14:51.818Z,40.36
2018-10-19T09:17:20.903Z,40.87
2018-10-19T09:19:51.086Z,39.42
2018-10-19T09:22:20.935Z,38.92
2018-10-19T09:24:50.259Z,38.06
2018-10-19T09:27:19.308Z,38.58
2018-10-19T09:29:48.402Z,37.75
2018-10-19T09:32:17.774Z,37.10
2018-10-19T09:34:46.604Z,36.11
2018-10-19T09:37:15.829Z,37.42
2018-10-19T09:39:45.124Z,35.52
2018-10-19T09:42:13.985Z,34.57
2018-10-19T09:44:43.489Z,33.88
2018-10-19T09:47:12.403Z,33.57
2018-10-19T09:49:41.764Z,34.01
2018-10-19T09:52:11.111Z,33.67
2018-10-19T09:54:40.247Z,32.66
2018-10-19T09:57:09.581Z,31.20
2018-10-19T09:59:38.399Z,30.24
2018-10-19T10:02:07.984Z,29.65
2018-10-19T10:04:37.137Z,29.48
2018-10-19T10:07:06.582Z,29.50
2018-10-19T10:09:35.575Z,30.05
2018-10-19T10:12:04.668Z,29.90
2018-10-19T10:14:33.643Z,31.74
2018-10-19T10:17:02.750Z,32.33
2018-10-19T10:19:32.403Z,31.12
2018-10-19T10:22:01.370Z,30.30
2018-10-19T10:24:30.304Z,29.92
2018-10-19T10:26:59.110Z,29.90
2018-10-19T10:29:27.897Z,30.68
2018-10-19T10:31:56.697Z,29.18
2018-10-19T10:34:25.724Z,30.26
2018-10-19T10:36:54.796Z,29.80
2018-10-19T10:39:24.319Z,29.06
2018-10-19T10:41:53.698Z,30.13
2018-10-19T10:44:22.840Z,30.54
2018-10-19T10:46:52.148Z,29.96
2018-10-19T10:49:21.503Z,29.92
2018-10-19T10:51:51.605Z,30.05
2018-10-19T10:54:20.552Z,28.09
2018-10-19T10:56:50.273Z,29.94
2018-10-19T10:59:19.863Z,28.48
2018-10-19T11:01:49.949Z,26.60
2018-10-19T11:04:19.674Z,27.70
2018-10-19T11:06:49.818Z,26.24
2018-10-19T11:09:19.524Z,26.85
2018-10-19T11:11:49.167Z,26.95
2018-10-19T11:14:19.572Z,28.00
2018-10-19T11:16:48.880Z,28.39
2018-10-19T11:19:17.953Z,26.76
2018-10-19T11:21:47.459Z,27.39
2018-10-19T11:24:17.523Z,28.27
2018-10-19T11:26:48.603Z,29.39
2018-10-19T11:29:17.728Z,30.48
2018-10-19T11:31:46.780Z,30.26
2018-10-19T11:34:15.760Z,30.42
2018-10-19T11:36:44.472Z,30.13
2018-10-19T11:39:13.549Z,29.66
2018-10-19T11:41:42.273Z,30.39
2018-10-19T11:44:11.903Z,31.66
2018-10-19T11:46:41.319Z,32.60
2018-10-19T11:49:09.962Z,32.29
2018-10-19T11:51:39.617Z,33.26
2018-10-19T11:54:08.800Z,31.24
2018-10-19T11:56:38.415Z,32.32
2018-10-19T11:59:07.333Z,32.67
2018-10-19T12:01:37.024Z,34.24
2018-10-19T12:04:06.812Z,34.60
2018-10-19T12:06:35.781Z,35.90
2018-10-19T12:09:08.290Z,36.76
2018-10-19T12:11:37.645Z,37.58
2018-10-19T12:14:06.501Z,35.93
2018-10-19T12:16:35.679Z,35.03
2018-10-19T12:19:05.261Z,33.14
2018-10-19T12:21:34.143Z,32.57
2018-10-19T12:24:03.355Z,32.26
2018-10-19T12:26:32.715Z,33.56
2018-10-19T12:29:01.943Z,34.61
2018-10-19T12:31:31.016Z,34.13
2018-10-19T12:34:00.425Z,33.75
2018-10-19T12:36:29.577Z,32.05
2018-10-19T12:38:58.627Z,30.28
2018-10-19T12:41:27.680Z,29.53
2018-10-19T12:43:57.303Z,28.88
2018-10-19T12:46:41.065Z,31.13
2018-10-19T12:49:10.529Z,32.25
2018-10-19T12:51:39.638Z,32.33
2018-10-19T12:54:08.875Z,32.39
2018-10-19T12:56:37.770Z,31.24
2018-10-19T12:59:07.302Z,31.86
2018-10-19T13:01:36.410Z,31.76
2018-10-19T13:04:06.081Z,33.29
2018-10-19T13:06:34.784Z,35.89
2018-10-19T13:09:06.124Z,36.92
2018-10-19T13:11:35.235Z,37.15
2018-10-19T13:14:04.303Z,38.00
2018-10-19T13:16:33.540Z,39.09
2018-10-19T13:19:02.803Z,38.08
2018-10-19T13:21:31.968Z,40.03
2018-10-19T13:24:01.401Z,41.03
2018-10-19T13:26:30.313Z,41.77
2018-10-19T13:28:59.756Z,41.97
2018-10-19T13:31:28.896Z,42.11
2018-10-19T13:33:57.738Z,42.32
2018-10-19T13:36:26.422Z,42.11
2018-10-19T13:38:55.644Z,41.70
2018-10-19T13:41:24.551Z,41.73
2018-10-19T13:43:53.339Z,41.73
2018-10-19T13:46:22.221Z,42.38
2018-10-19T13:48:51.225Z,43.44
2018-10-19T13:51:20.030Z,42.67
2018-10-19T13:53:48.973Z,42.83
2018-10-19T13:56:18.176Z,41.82
2018-10-19T13:58:47.379Z,40.43
2018-10-19T14:01:16.256Z,39.70
2018-10-19T14:03:45.345Z,38.80
2018-10-19T14:06:15.097Z,40.28
2018-10-19T14:08:45.328Z,40.54
2018-10-19T14:11:14.120Z,41.86
2018-10-19T14:13:42.764Z,42.64
2018-10-19T14:16:11.644Z,43.72
2018-10-19T14:18:41.258Z,44.25
2018-10-19T14:21:10.694Z,45.21
2018-10-19T14:23:39.625Z,45.25
2018-10-19T14:26:09.380Z,45.43
2018-10-19T14:28:38.114Z,46.02
2018-10-19T14:31:08.169Z,45.89
2018-10-19T14:33:37.669Z,46.04
2018-10-19T14:36:06.567Z,46.54
2018-10-19T14:38:36.135Z,47.19
2018-10-19T14:41:05.250Z,49.34
2018-10-19T14:43:34.433Z,49.57
2018-10-19T14:46:03.762Z,49.44
2018-10-19T14:48:32.851Z,50.12
2018-10-19T14:51:01.794Z,50.17
2018-10-19T14:53:30.669Z,50.59
2018-10-19T14:55:59.343Z,51.89
2018-10-19T14:58:28.787Z,51.48
2018-10-19T15:00:57.644Z,51.80
2018-10-19T15:03:26.564Z,52.50
2018-10-19T15:05:55.424Z,52.43
2018-10-19T15:08:24.918Z,51.89
2018-10-19T15:10:54.020Z,53.28
2018-10-19T15:13:23.195Z,52.89
2018-10-19T15:15:52.253Z,54.10
2018-10-19T15:18:21.570Z,53.53
2018-10-19T15:20:50.417Z,54.05
2018-10-19T15:23:19.779Z,54.56
2018-10-19T15:25:49.439Z,54.99
2018-10-19T15:28:18.523Z,54.79
2018-10-19T15:30:47.845Z,55.09
2018-10-19T15:33:17.023Z,55.69
2018-10-19T15:35:46.291Z,55.93
2018-10-19T15:38:15.311Z,56.37
2018-10-19T15:40:44.196Z,56.73
2018-10-19T15:43:12.965Z,57.21
2018-10-19T15:45:42.076Z,58.43
2018-10-19T15:48:12.163Z,59.43
2018-10-19T15:50:41.115Z,59.89
2018-10-19T15:53:11.264Z,61.20
2018-10-19T15:55:40.161Z,60.76
2018-10-19T15:58:09.155Z,61.24
2018-10-19T16:00:38.386Z,62.50
2018-10-19T16:03:07.661Z,63.04
2018-10-19T16:05:36.763Z,64.20
2018-10-19T16:08:06.015Z,64.94
2018-10-19T16:10:35.625Z,65.64
2018-10-19T16:13:04.652Z,66.62
2018-10-19T16:15:33.568Z,67.43
2018-10-19T16:18:04.690Z,67.39
2018-10-19T16:20:33.687Z,67.63
2018-10-19T16:23:03.276Z,68.09
2018-10-19T16:25:32.399Z,68.35
2018-10-19T16:28:01.785Z,68.33
2018-10-19T16:30:32.088Z,68.93
2018-10-19T16:33:02.259Z,69.15
2018-10-19T16:35:31.217Z,69.36
2018-10-19T16:38:00.741Z,69.94
2018-10-19T16:40:29.715Z,69.84
2018-10-19T16:42:59.212Z,71.08
2018-10-19T16:45:28.206Z,71.65
2018-10-19T16:47:57.369Z,73.69
2018-10-19T16:50:26.225Z,73.68
2018-10-19T16:52:55.367Z,74.22
2018-10-19T16:55:24.246Z,74.95
2018-10-19T16:57:54.408Z,75.47
2018-10-19T17:00:23.492Z,75.66
2018-10-19T17:02:52.860Z,76.29
2018-10-19T17:05:22.054Z,77.11
2018-10-19T17:07:51.685Z,77.89
2018-10-19T17:10:20.592Z,78.01
2018-10-19T17:12:49.436Z,78.17
2018-10-19T17:15:19.840Z,77.86
2018-10-19T17:17:49.510Z,78.28
2018-10-19T17:20:18.532Z,78.34
2018-10-19T17:22:47.733Z,79.13
2018-10-19T17:25:17.099Z,79.24
2018-10-19T17:27:45.940Z,80.44
2018-10-19T17:30:15.383Z,80.18
2018-10-19T17:32:44.369Z,81.22
2018-10-19T17:35:13.784Z,81.14
2018-10-19T17:37:42.990Z,80.60
2018-10-19T17:40:12.167Z,80.97
2018-10-19T17:42:41.341Z,81.10
2018-10-19T17:45:11.637Z,81.37
2018-10-19T17:47:42.700Z,81.55
2018-10-19T17:50:12.523Z,82.27
2018-10-19T17:52:42.215Z,82.07
2018-10-19T17:55:12.905Z,81.78
2018-10-19T17:57:42.083Z,82.53
2018-10-19T18:00:13.327Z,82.73
2018-10-19T18:02:43.090Z,82.46
2018-10-19T18:05:12.154Z,83.00
2018-10-19T18:07:41.483Z,83.36
2018-10-19T18:10:13.508Z,83.18
2018-10-19T18:12:42.998Z,82.77
2018-10-19T18:15:13.421Z,82.57
2018-10-19T18:17:43.198Z,82.83
2018-10-19T18:20:12.507Z,82.45
2018-10-19T18:22:42.889Z,82.48
2018-10-19T18:25:12.907Z,83.71
2018-10-19T18:27:43.062Z,84.09
2018-10-19T18:30:13.170Z,85.15
2018-10-19T18:32:43.298Z,85.74
2018-10-19T18:35:12.819Z,86.25
2018-10-19T18:37:42.223Z,86.29
2018-10-19T18:40:12.345Z,85.44
2018-10-19T18:42:41.545Z,86.18
2018-10-19T18:45:10.958Z,85.95
2018-10-19T18:47:40.835Z,85.81
2018-10-19T18:50:10.129Z,86.09
2018-10-19T18:52:39.903Z,85.35
2018-10-19T18:55:08.870Z,85.51
2018-10-19T18:57:37.674Z,85.64
2018-10-19T19:00:08.917Z,86.40
2018-10-19T19:02:37.993Z,86.45
2018-10-19T19:05:07.453Z,86.84
2018-10-19T19:07:37.832Z,86.76
2018-10-19T19:10:11.296Z,87.18
2018-10-19T19:12:40.840Z,87.85
2018-10-19T19:15:10.485Z,87.24
2018-10-19T19:17:39.901Z,87.73
2018-10-19T19:20:14.512Z,87.79
2018-10-19T19:22:43.723Z,87.64
2018-10-19T19:25:18.572Z,87.74
2018-10-19T19:27:48.322Z,87.27
2018-10-19T19:30:18.022Z,88.46
2018-10-19T19:32:51.952Z,88.57
2018-10-19T19:35:20.898Z,88.63
2018-10-19T19:37:50.065Z,89.69
2018-10-19T19:40:19.588Z,90.26
2018-10-19T19:42:54.207Z,89.81
2018-10-19T19:45:24.130Z,89.79
2018-10-19T19:47:58.422Z,89.49
2018-10-19T19:50:27.495Z,90.91
2018-10-19T19:52:56.526Z,90.94
2018-10-19T19:55:26.251Z,89.72
2018-10-19T19:57:55.208Z,89.46
2018-10-19T20:00:24.256Z,90.08
2018-10-19T20:02:53.408Z,89.66
2018-10-19T20:05:22.457Z,89.44
2018-10-19T20:07:51.673Z,89.70
2018-10-19T20:10:21.197Z,89.31
2018-10-19T20:12:50.261Z,89.21
2018-10-19T20:15:19.800Z,89.30
2018-10-19T20:17:48.781Z,89.94
2018-10-19T20:20:18.917Z,89.97
2018-10-19T20:22:48.028Z,90.08
2018-10-19T20:25:17.604Z,90.32
2018-10-19T20:27:46.773Z,90.03
2018-10-19T20:30:15.930Z,90.28
2018-10-19T20:32:45.345Z,90.23
2018-10-19T20:35:14.515Z,90.98
2018-10-19T20:37:43.678Z,91.13
2018-10-19T20:40:12.691Z,91.26
2018-10-19T20:42:42.232Z,91.20
2018-10-19T20:45:11.216Z,91.01
2018-10-19T20:47:40.171Z,91.59
2018-10-19T20:50:10.542Z,91.19
2018-10-19T20:52:39.368Z,90.94
2018-10-19T20:55:10.016Z,91.06
2018-10-19T20:57:38.987Z,90.96
2018-10-19T21:00:08.994Z,90.29
2018-10-19T21:02:37.922Z,91.03
2018-10-19T21:05:07.683Z,91.20
2018-10-19T21:07:36.773Z,91.61
2018-10-19T21:10:07.507Z,91.36
2018-10-19T21:12:36.729Z,91.53
2018-10-19T21:15:06.493Z,91.50
2018-10-19T21:17:36.315Z,91.90
2018-10-19T21:20:05.452Z,92.10
2018-10-19T21:22:34.799Z,92.02
2018-10-19T21:25:03.788Z,92.19
2018-10-19T21:27:32.697Z,92.33
2018-10-19T21:30:01.903Z,92.44
2018-10-19T21:32:30.754Z,92.21
2018-10-19T21:34:59.561Z,92.11
2018-10-19T21:37:28.631Z,91.89
2018-10-19T21:39:57.954Z,92.01
2018-10-19T21:42:26.998Z,91.90
2018-10-19T21:44:56.319Z,91.62
2018-10-19T21:47:25.903Z,91.87
2018-10-19T21:49:54.903Z,91.96
2018-10-19T21:52:24.039Z,91.96
2018-10-19T21:54:53.088Z,92.69
2018-10-19T21:57:22.239Z,93.23
2018-10-19T21:59:51.847Z,93.02
2018-10-19T22:02:20.942Z,92.51
2018-10-19T22:04:49.766Z,93.00
2018-10-19T22:07:19.244Z,93.31
2018-10-19T22:09:48.617Z,93.06
2018-10-19T22:12:17.386Z,93.46
2018-10-19T22:14:46.916Z,93.21
2018-10-19T22:17:16.322Z,93.17
2018-10-19T22:19:45.493Z,93.08
2018-10-19T22:22:15.218Z,92.57
2018-10-19T22:24:44.616Z,92.92
2018-10-19T22:27:14.131Z,92.55
2018-10-19T22:29:42.950Z,92.75
2018-10-19T22:32:11.974Z,93.08
2018-10-19T22:34:40.783Z,93.61
2018-10-19T22:37:10.094Z,93.46
2018-10-19T22:39:38.999Z,93.13
2018-10-19T22:42:08.004Z,93.01
2018-10-19T22:44:37.669Z,92.92
2018-10-19T22:47:06.950Z,93.27
2018-10-19T22:49:36.087Z,93.60
2018-10-19T22:52:05.603Z,93.39
2018-10-19T22:54:34.961Z,93.66
2018-10-19T22:57:03.795Z,93.44
2018-10-19T22:59:32.598Z,93.73
2018-10-19T23:02:02.232Z,93.71
2018-10-19T23:04:31.141Z,93.42
2018-10-19T23:07:00.832Z,93.63
2018-10-19T23:09:31.993Z,93.04
2018-10-19T23:12:02.218Z,93.55
2018-10-19T23:14:31.247Z,93.15
2018-10-19T23:17:00.512Z,93.11
2018-10-19T23:19:29.782Z,93.58
2018-10-19T23:21:58.579Z,94.03
2018-10-19T23:24:28.341Z,94.14
2018-10-19T23:26:57.567Z,94.42
2018-10-19T23:29:26.565Z,94.36
2018-10-19T23:31:56.308Z,94.85
2018-10-19T23:34:25.461Z,94.57
2018-10-19T23:37:02.172Z,94.79
2018-10-19T23:39:31.375Z,94.76
2018-10-19T23:42:00.633Z,94.10
2018-10-19T23:44:29.773Z,94.29
2018-10-19T23:46:58.569Z,94.05
2018-10-19T23:49:27.448Z,94.34
2018-10-19T23:51:56.604Z,94.57
2018-10-19T23:54:25.635Z,94.27
2018-10-19T23:56:54.678Z,94.83
2018-10-19T23:59:24.121Z,94.27
